Pagrindinis puslapis
METAR-TAF:

METAR-TAF

Oro uostai :

Orhusas, Danija

platuma: 56-18N, ilguma: 010-37E, Aukštis: 23 m

Dabartinis oras

Ataskaita buvo paskelbta 51 minutes, ne 22:50 UTC
Vėjas 2 kt iš Pietų/Pietryčių
Temperatūra 16°C
Drėgmė 72%
Slėgis 1020 hPa
Matomumas 10 km arba daugiau

METAR: EKAH 022250Z AUTO 15002KT 9999 FEW080/// BKN230/// 16/11 Q1020

Laikas: 01:41 (23:41 UTC)

Prognozė

Ataskaita buvo paskelbta 6 valandos ir 34 minutes, ne 17:07 UTC
Prognozė galioja nuo 02 metu 18 UTC su 03 metu 18 UTC
Vėjas 10 kt iš Pietų/Pietvakarių
Matomumas 10 km arba daugiau
Mažai debesys ne aukštis 4000 ft
Tapsmas
nuo 02 metu 23 UTC su 03 metu 02 UTC
Vėjas 8 kt iš Pietryčių
Laikinai
nuo 03 metu 01 UTC su 03 metu 18 UTC
Išsisklaidę debesys ne aukštis 4000 ft, Liūtiniai kamuoliniai debesys.
lietus
Tikimybė 40% :
Laikinai
nuo 03 metu 14 UTC su 03 metu 18 UTC
perkūnija, lietus

TAF: EKAH 021707Z 0218/0318 21010KT 9999 FEW040 BECMG 0223/0302 14008KT TEMPO 0301/0318 SHRA SCT040CB PROB40 TEMPO 0314/0318 TSRA

Orai ataskaitas ir orų prognozės (METAR, TAF).

turimą stotys yra geltonos ir raudonos taškus žemėlapyje.

Perkelti pele per norėdami pamatyti stoties vardą.

Tada spustelėkite, norėdami matyti oro stebėjimo ir prognozės.

Norėdami pakeisti žemėlapį: spustelėkite ant žalios mygtukų su juodo kryžiaus žemyn,; žalią mygtuką su brūkšneliu, jei norite nutolinti; arba žalių rodyklių gretimoms žemėlapius.


METAR-TAF: